< Typhoon 199514 1995 Season Typhoon 199516 >
Typhoon 199515 (SIBYL)
General InformationTrack Information on Google MapsDetailed Wind InformationList of All Images || NewsDisaster Info.ResourceGoogle EarthGE AnimationAtom FeedGeoJSON
Detalied Best Track (Time Zone = UTC)
Year Month Day Hour Lat. Long. Pressure (hPa) Wind (kt) Class Image Chart
1995 9 27 06 7.8 134.5 1006 0 2 Image Chart
1995 9 27 12 8.0 133.5 1006 0 2 Image Chart
1995 9 27 18 8.2 132.3 1004 0 2 Image Chart
1995 9 28 00 8.5 131.0 1002 0 2 Image Chart
1995 9 28 06 9.3 130.2 1000 0 2 Image Chart
1995 9 28 12 10.0 129.4 998 35 3 Image Chart
1995 9 28 18 10.4 128.1 998 35 3 Image Chart
1995 9 29 00 10.7 127.2 998 35 3 Image Chart
1995 9 29 06 11.3 125.8 998 35 3 Image Chart
1995 9 29 12 12.1 125.1 994 40 3 Image Chart
1995 9 29 18 12.6 124.1 992 45 3 Image Chart
1995 9 30 00 12.9 123.0 990 50 4 Image Chart
1995 9 30 06 13.3 122.3 990 50 4 Image Chart
1995 9 30 12 13.8 121.8 990 50 4 Image Chart
1995 9 30 18 14.6 121.1 990 50 4 Image Chart
1995 10 1 00 15.7 119.8 990 50 4 Image Chart
1995 10 1 06 16.3 118.4 985 50 4 Image Chart
1995 10 1 12 16.7 117.1 985 50 4 Image Chart
1995 10 1 18 17.2 116.0 985 50 4 Image Chart
1995 10 2 00 17.7 115.0 985 50 4 Image Chart
1995 10 2 06 18.4 114.1 985 50 4 Image Chart
1995 10 2 12 19.3 113.1 985 50 4 Image Chart
1995 10 2 18 19.9 112.4 985 50 4 Image Chart
1995 10 3 00 20.7 111.7 985 50 4 Image Chart
1995 10 3 06 21.6 111.2 994 45 3 Image Chart
1995 10 3 12 22.5 110.7 998 35 3 Image Chart
1995 10 3 18 23.4 110.8 1002 0 2 Image Chart
1995 10 4 00 24.0 111.5 1008 0 2 Image Chart
1995 10 4 06 24.5 112.5 1008 0 2 Image Chart
1995 10 4 12 24.5 113.5 1010 0 2 Image Chart
Japan Meteorological Agency Best Track Data | Correction Date : 1996-01-19
< Typhoon 199514 1995 Season Typhoon 199516 >

Help